createdAt,value
2018-05-06T00:00:04.744Z,19.94
2018-05-06T00:01:04.770Z,19.60
2018-05-06T00:02:04.797Z,19.76
2018-05-06T00:03:04.829Z,19.94
2018-05-06T00:04:04.878Z,19.70
2018-05-06T00:05:04.873Z,19.95
2018-05-06T00:06:04.890Z,20.06
2018-05-06T00:07:04.915Z,19.98
2018-05-06T00:08:04.934Z,20.05
2018-05-06T00:09:04.953Z,19.40
2018-05-06T00:10:04.992Z,19.29
2018-05-06T00:11:05.018Z,19.35
2018-05-06T00:12:05.034Z,19.65
2018-05-06T00:13:05.058Z,19.35
2018-05-06T00:14:05.081Z,19.66
2018-05-06T00:15:05.103Z,19.75
2018-05-06T00:16:05.129Z,19.46
2018-05-06T00:17:05.158Z,19.53
2018-05-06T00:18:05.179Z,19.66
2018-05-06T00:19:05.217Z,19.73
2018-05-06T00:20:05.244Z,19.78
2018-05-06T00:21:05.261Z,19.78
2018-05-06T00:22:05.275Z,19.87
2018-05-06T00:23:05.297Z,19.72
2018-05-06T00:24:05.328Z,19.86
2018-05-06T00:25:05.349Z,19.86
2018-05-06T00:26:05.366Z,19.70
2018-05-06T00:27:05.395Z,19.63
2018-05-06T00:28:05.422Z,19.21
2018-05-06T00:29:05.444Z,19.01
2018-05-06T00:30:05.571Z,18.83
2018-05-06T00:31:05.488Z,18.84
2018-05-06T00:32:05.508Z,18.64
2018-05-06T00:33:05.542Z,18.62
2018-05-06T00:34:05.568Z,18.49
2018-05-06T00:35:05.583Z,18.79
2018-05-06T00:36:05.620Z,18.92
2018-05-06T00:37:05.632Z,19.05
2018-05-06T00:38:05.651Z,19.01
2018-05-06T00:39:05.684Z,18.70
2018-05-06T00:40:05.701Z,18.70
2018-05-06T00:41:05.723Z,18.72
2018-05-06T00:42:05.753Z,19.06
2018-05-06T00:43:05.771Z,19.25
2018-05-06T00:44:05.797Z,19.42
2018-05-06T00:45:05.818Z,19.57
2018-05-06T00:46:05.847Z,19.66
2018-05-06T00:47:05.868Z,19.08
2018-05-06T00:48:05.909Z,19.05
2018-05-06T00:49:05.931Z,18.99
2018-05-06T00:50:05.940Z,19.21
2018-05-06T00:51:05.968Z,19.05
2018-05-06T00:52:05.989Z,19.02
2018-05-06T00:53:06.017Z,19.10
2018-05-06T00:54:06.036Z,19.35
2018-05-06T00:55:06.061Z,19.43
2018-05-06T00:56:06.079Z,19.65
2018-05-06T00:57:06.110Z,19.65
2018-05-06T00:58:06.127Z,19.50
2018-05-06T00:59:06.158Z,19.46
2018-05-06T01:00:06.184Z,19.61
2018-05-06T01:01:06.198Z,19.48
2018-05-06T01:02:06.226Z,19.54
2018-05-06T01:03:06.244Z,19.65
2018-05-06T01:04:06.270Z,19.61
2018-05-06T01:05:06.307Z,19.63
2018-05-06T01:06:06.316Z,19.61
2018-05-06T01:07:06.335Z,19.65
2018-05-06T01:08:06.397Z,19.65
2018-05-06T01:09:06.388Z,19.65
2018-05-06T01:10:06.408Z,19.63
2018-05-06T01:11:06.484Z,19.43
2018-05-06T01:12:06.461Z,19.36
2018-05-06T01:13:06.492Z,19.42
2018-05-06T01:14:06.520Z,19.53
2018-05-06T01:15:06.533Z,19.53
2018-05-06T01:16:06.554Z,19.65
2018-05-06T01:17:06.575Z,19.55
2018-05-06T01:18:06.598Z,19.60
2018-05-06T01:19:06.621Z,19.57
2018-05-06T01:20:06.648Z,19.17
2018-05-06T01:21:06.694Z,19.25
2018-05-06T01:22:06.692Z,19.43
2018-05-06T01:23:06.721Z,19.42
2018-05-06T01:24:06.737Z,19.50
2018-05-06T01:25:06.796Z,19.47
2018-05-06T01:26:06.783Z,19.25
2018-05-06T01:27:06.814Z,19.21
2018-05-06T01:28:06.833Z,19.31
2018-05-06T01:29:06.862Z,19.25
2018-05-06T01:30:06.881Z,18.84
2018-05-06T01:31:06.902Z,18.83
2018-05-06T01:32:06.925Z,18.79
2018-05-06T01:33:06.952Z,18.64
2018-05-06T01:34:06.968Z,18.42
2018-05-06T01:35:06.993Z,18.64
2018-05-06T01:36:07.022Z,18.94
2018-05-06T01:37:07.042Z,19.01
2018-05-06T01:38:07.062Z,19.15
2018-05-06T01:39:07.125Z,19.20
2018-05-06T01:40:07.118Z,19.29
2018-05-06T01:41:07.133Z,19.21
2018-05-06T01:42:07.159Z,19.24
2018-05-06T01:43:07.186Z,19.24
2018-05-06T01:44:07.203Z,19.25
2018-05-06T01:45:07.258Z,19.14
2018-05-06T01:46:07.254Z,19.24
2018-05-06T01:47:07.273Z,19.17
2018-05-06T01:48:07.300Z,19.21
2018-05-06T01:49:07.312Z,19.21
2018-05-06T01:50:07.338Z,19.06
2018-05-06T01:51:07.374Z,19.15
2018-05-06T01:52:07.390Z,19.13
2018-05-06T01:53:07.406Z,19.17
2018-05-06T01:54:07.429Z,19.23
2018-05-06T01:55:07.460Z,19.13
2018-05-06T01:56:07.492Z,19.21
2018-05-06T01:57:07.505Z,19.14
2018-05-06T01:58:07.524Z,19.17
2018-05-06T01:59:07.560Z,19.13
2018-05-06T02:00:07.571Z,19.21
2018-05-06T02:01:07.600Z,19.20
2018-05-06T02:02:07.614Z,19.23
2018-05-06T02:03:07.640Z,19.20
2018-05-06T02:04:07.675Z,18.97
2018-05-06T02:05:07.695Z,18.49
2018-05-06T02:06:07.709Z,18.55
2018-05-06T02:07:07.743Z,18.83
2018-05-06T02:08:07.756Z,18.90
2018-05-06T02:09:07.785Z,18.95
2018-05-06T02:10:07.809Z,18.91
2018-05-06T02:11:07.847Z,18.87
2018-05-06T02:12:07.845Z,18.97
2018-05-06T02:13:07.872Z,18.98
2018-05-06T02:14:07.895Z,18.97
2018-05-06T02:15:07.914Z,18.92
2018-05-06T02:16:07.940Z,18.99
2018-05-06T02:17:07.974Z,19.06
2018-05-06T02:18:07.988Z,18.94
2018-05-06T02:19:08.020Z,19.01
2018-05-06T02:20:08.046Z,18.99
2018-05-06T02:21:08.053Z,18.98
2018-05-06T02:22:08.134Z,18.97
2018-05-06T02:23:08.122Z,18.87
2018-05-06T02:24:08.122Z,18.74
2018-05-06T02:25:08.144Z,18.74
2018-05-06T02:26:08.173Z,18.77
2018-05-06T02:27:08.200Z,18.83
2018-05-06T02:28:08.213Z,18.65
2018-05-06T02:29:08.277Z,18.80
2018-05-06T02:30:08.264Z,18.77
2018-05-06T02:31:08.396Z,18.84
2018-05-06T02:32:08.307Z,18.80
2018-05-06T02:33:08.377Z,18.82
2018-05-06T02:34:08.355Z,18.79
2018-05-06T02:35:08.376Z,18.52
2018-05-06T02:36:08.398Z,18.70
2018-05-06T02:37:08.417Z,18.76
2018-05-06T02:38:08.445Z,18.86
2018-05-06T02:39:08.482Z,18.83
2018-05-06T02:40:08.499Z,18.87
2018-05-06T02:41:08.517Z,18.77
2018-05-06T02:42:08.563Z,18.87
2018-05-06T02:43:08.569Z,18.73
2018-05-06T02:44:08.577Z,18.79
2018-05-06T02:45:08.613Z,18.84
2018-05-06T02:46:08.624Z,18.76
2018-05-06T02:47:08.653Z,18.82
2018-05-06T02:48:08.675Z,18.73
2018-05-06T02:49:08.690Z,18.72
2018-05-06T02:50:08.716Z,18.72
2018-05-06T02:51:08.737Z,18.84
2018-05-06T02:52:08.774Z,18.82
2018-05-06T02:53:08.783Z,18.73
2018-05-06T02:54:08.810Z,18.68
2018-05-06T02:55:08.835Z,18.65
2018-05-06T02:56:08.855Z,18.70
2018-05-06T02:57:08.876Z,18.80
2018-05-06T02:58:08.894Z,18.72
2018-05-06T02:59:08.920Z,18.83
2018-05-06T03:00:08.945Z,18.72
2018-05-06T03:01:08.976Z,18.76
2018-05-06T03:02:08.983Z,18.68
2018-05-06T03:03:09.009Z,18.73
2018-05-06T03:04:09.033Z,18.62
2018-05-06T03:05:09.063Z,18.67
2018-05-06T03:06:09.073Z,18.64
2018-05-06T03:07:09.102Z,18.70
2018-05-06T03:08:09.124Z,18.67
2018-05-06T03:09:09.154Z,18.67
2018-05-06T03:10:09.174Z,18.52
2018-05-06T03:11:09.193Z,18.57
2018-05-06T03:12:09.213Z,18.58
2018-05-06T03:13:09.241Z,18.65
2018-05-06T03:14:09.266Z,18.58
2018-05-06T03:15:09.282Z,18.50
2018-05-06T03:16:09.322Z,18.55
2018-05-06T03:17:09.324Z,18.24
2018-05-06T03:18:09.345Z,18.34
2018-05-06T03:19:09.375Z,18.37
2018-05-06T03:20:09.397Z,18.43
2018-05-06T03:21:09.412Z,18.52
2018-05-06T03:22:09.445Z,18.42
2018-05-06T03:23:09.462Z,18.36
2018-05-06T03:24:09.481Z,18.40
2018-05-06T03:25:09.507Z,18.42
2018-05-06T03:26:09.533Z,18.52
2018-05-06T03:27:09.549Z,18.43
2018-05-06T03:28:09.585Z,18.42
2018-05-06T03:29:09.595Z,18.52
2018-05-06T03:30:09.619Z,18.47
2018-05-06T03:31:09.643Z,18.42
2018-05-06T03:32:09.668Z,18.39
2018-05-06T03:33:09.704Z,18.42
2018-05-06T03:34:09.705Z,18.43
2018-05-06T03:35:09.766Z,18.40
2018-05-06T03:36:09.760Z,18.36
2018-05-06T03:37:09.776Z,18.39
2018-05-06T03:38:09.802Z,18.34
2018-05-06T03:39:09.824Z,18.34
2018-05-06T03:40:09.844Z,18.40
2018-05-06T03:41:09.867Z,18.39
2018-05-06T03:42:09.890Z,18.37
2018-05-06T03:43:09.914Z,18.29
2018-05-06T03:44:09.931Z,18.09
2018-05-06T03:45:09.958Z,18.22
2018-05-06T03:46:09.980Z,18.27
2018-05-06T03:47:10.001Z,18.19
2018-05-06T03:48:10.018Z,18.37
2018-05-06T03:49:10.046Z,18.33
2018-05-06T03:50:10.061Z,18.22
2018-05-06T03:51:10.107Z,18.31
2018-05-06T03:52:10.110Z,18.31
2018-05-06T03:53:10.220Z,18.28
2018-05-06T03:54:10.155Z,18.24
2018-05-06T03:55:10.182Z,18.27
2018-05-06T03:56:10.230Z,18.29
2018-05-06T03:57:10.220Z,18.28
2018-05-06T03:58:10.245Z,18.27
2018-05-06T03:59:10.269Z,18.29
2018-05-06T04:00:10.290Z,18.27
2018-05-06T04:01:10.307Z,18.25
2018-05-06T04:02:10.335Z,18.19
2018-05-06T04:03:10.349Z,18.21
2018-05-06T04:04:10.375Z,18.15
2018-05-06T04:05:10.401Z,18.22
2018-05-06T04:06:10.417Z,18.18
2018-05-06T04:07:10.442Z,18.07
2018-05-06T04:08:10.467Z,18.13
2018-05-06T04:09:10.533Z,18.17
2018-05-06T04:10:10.511Z,18.18
2018-05-06T04:11:10.532Z,18.13
2018-05-06T04:12:10.557Z,18.18
2018-05-06T04:13:10.578Z,18.07
2018-05-06T04:14:10.607Z,18.06
2018-05-06T04:15:10.621Z,18.04
2018-05-06T04:16:10.639Z,18.07
2018-05-06T04:17:10.671Z,18.04
2018-05-06T04:18:10.688Z,18.06
2018-05-06T04:19:10.709Z,18.09
2018-05-06T04:20:10.736Z,18.03
2018-05-06T04:21:10.764Z,18.03
2018-05-06T04:22:10.771Z,18.00
2018-05-06T04:23:10.793Z,18.02
2018-05-06T04:24:10.822Z,18.00
2018-05-06T04:25:10.843Z,17.99
2018-05-06T04:26:10.858Z,18.00
2018-05-06T04:27:10.886Z,18.02
2018-05-06T04:28:10.905Z,18.03
2018-05-06T04:29:10.930Z,18.06
2018-05-06T04:30:10.956Z,17.92
2018-05-06T04:31:10.976Z,17.95
2018-05-06T04:32:10.997Z,17.92
2018-05-06T04:33:11.018Z,17.94
2018-05-06T04:34:11.039Z,17.85
2018-05-06T04:35:11.065Z,17.95
2018-05-06T04:36:11.089Z,17.85
2018-05-06T04:37:11.109Z,17.76
2018-05-06T04:38:11.135Z,17.85
2018-05-06T04:39:11.156Z,17.85
2018-05-06T04:40:11.175Z,17.87
2018-05-06T04:41:11.201Z,17.84
2018-05-06T04:42:11.225Z,17.82
2018-05-06T04:43:11.236Z,17.81
2018-05-06T04:44:11.281Z,17.81
2018-05-06T04:45:11.284Z,17.87
2018-05-06T04:46:11.314Z,17.89
2018-05-06T04:47:11.341Z,17.84
2018-05-06T04:48:11.346Z,17.73
2018-05-06T04:49:11.368Z,17.81
2018-05-06T04:50:11.385Z,17.79
2018-05-06T04:51:11.415Z,17.74
2018-05-06T04:52:11.437Z,17.78
2018-05-06T04:53:11.456Z,17.55
2018-05-06T04:54:11.482Z,17.35
2018-05-06T04:55:11.500Z,17.59
2018-05-06T04:56:11.526Z,17.76
2018-05-06T04:57:11.551Z,17.64
2018-05-06T04:58:11.571Z,17.51
2018-05-06T04:59:11.595Z,17.67
2018-05-06T05:00:11.611Z,17.46
2018-05-06T05:01:11.634Z,17.71
2018-05-06T05:02:11.677Z,17.78
2018-05-06T05:03:11.683Z,17.79
2018-05-06T05:04:11.704Z,17.81
2018-05-06T05:05:11.723Z,17.78
2018-05-06T05:06:11.740Z,17.85
2018-05-06T05:07:11.834Z,17.74
2018-05-06T05:08:11.800Z,17.82
2018-05-06T05:09:11.812Z,17.79
2018-05-06T05:10:11.840Z,17.79
2018-05-06T05:11:11.857Z,17.70
2018-05-06T05:12:11.876Z,17.76
2018-05-06T05:13:11.897Z,17.59
2018-05-06T05:14:11.928Z,17.70
2018-05-06T05:15:11.947Z,17.67
2018-05-06T05:16:11.960Z,17.81
2018-05-06T05:17:11.989Z,17.44
2018-05-06T05:18:12.001Z,17.57
2018-05-06T05:19:12.074Z,17.64
2018-05-06T05:20:12.055Z,17.28
2018-05-06T05:21:12.074Z,17.50
2018-05-06T05:22:12.100Z,17.63
2018-05-06T05:23:12.123Z,17.67
2018-05-06T05:24:12.142Z,17.84
2018-05-06T05:25:12.164Z,17.74
2018-05-06T05:26:12.185Z,17.81
2018-05-06T05:27:12.207Z,17.81
2018-05-06T05:28:12.230Z,17.25
2018-05-06T05:29:12.251Z,17.32
2018-05-06T05:30:12.272Z,17.04
2018-05-06T05:31:12.310Z,17.30
2018-05-06T05:32:12.325Z,17.62
2018-05-06T05:33:12.339Z,17.17
2018-05-06T05:34:12.364Z,17.30
2018-05-06T05:35:12.382Z,17.46
2018-05-06T05:36:12.407Z,17.59
2018-05-06T05:37:12.430Z,17.64
2018-05-06T05:38:12.457Z,17.71
2018-05-06T05:39:12.480Z,17.69
2018-05-06T05:40:12.526Z,17.64
2018-05-06T05:41:12.525Z,17.67
2018-05-06T05:42:12.532Z,17.40
2018-05-06T05:43:12.569Z,17.38
2018-05-06T05:44:12.626Z,17.53
2018-05-06T05:45:12.605Z,17.71
2018-05-06T05:46:12.628Z,17.64
2018-05-06T05:47:12.652Z,17.79
2018-05-06T05:48:12.670Z,17.73
2018-05-06T05:49:12.688Z,17.78
2018-05-06T05:50:12.725Z,17.85
2018-05-06T05:51:12.738Z,17.79
2018-05-06T05:52:12.756Z,17.79
2018-05-06T05:53:12.784Z,17.81
2018-05-06T05:54:12.817Z,17.55
2018-05-06T05:55:12.826Z,17.62
2018-05-06T05:56:12.849Z,17.67
2018-05-06T05:57:12.874Z,17.78
2018-05-06T05:58:12.894Z,17.81
2018-05-06T05:59:12.915Z,17.76
2018-05-06T06:00:12.934Z,17.76
2018-05-06T06:01:12.964Z,17.79
2018-05-06T06:02:12.979Z,17.81
2018-05-06T06:03:13.004Z,17.78
2018-05-06T06:04:13.022Z,17.76
2018-05-06T06:05:13.055Z,17.79
2018-05-06T06:06:13.073Z,17.82
2018-05-06T06:07:13.110Z,17.84
2018-05-06T06:08:13.116Z,17.76
2018-05-06T06:09:13.136Z,17.70
2018-05-06T06:10:13.161Z,17.81
2018-05-06T06:11:13.183Z,17.81
2018-05-06T06:12:13.205Z,17.78
2018-05-06T06:13:13.224Z,17.71
2018-05-06T06:14:13.247Z,17.76
2018-05-06T06:15:13.275Z,17.69
2018-05-06T06:16:13.298Z,17.76
2018-05-06T06:17:13.320Z,17.92
2018-05-06T06:18:13.340Z,17.71
2018-05-06T06:19:13.362Z,17.48
2018-05-06T06:20:13.378Z,17.41
2018-05-06T06:21:13.407Z,17.67
2018-05-06T06:22:13.429Z,17.82
2018-05-06T06:23:13.450Z,17.85
2018-05-06T06:24:13.476Z,17.92
2018-05-06T06:25:13.497Z,17.78
2018-05-06T06:26:13.526Z,17.85
2018-05-06T06:27:13.549Z,17.73
2018-05-06T06:28:13.566Z,17.74
2018-05-06T06:29:13.594Z,17.76
2018-05-06T06:30:13.609Z,17.92
2018-05-06T06:31:13.630Z,17.97
2018-05-06T06:32:13.652Z,17.95
2018-05-06T06:33:13.695Z,18.00
2018-05-06T06:34:13.705Z,18.04
2018-05-06T06:35:13.746Z,18.13
2018-05-06T06:36:13.768Z,18.09
2018-05-06T06:37:13.787Z,18.17
2018-05-06T06:38:13.866Z,18.15
2018-05-06T06:39:13.809Z,18.22
2018-05-06T06:40:13.833Z,18.24
2018-05-06T06:41:13.856Z,18.07
2018-05-06T06:42:13.880Z,18.18
2018-05-06T06:43:13.918Z,18.13
2018-05-06T06:44:13.931Z,18.10
2018-05-06T06:45:13.944Z,18.00
2018-05-06T06:46:13.969Z,18.09
2018-05-06T06:47:13.992Z,18.15
2018-05-06T06:48:14.012Z,18.21
2018-05-06T06:49:14.040Z,18.22
2018-05-06T06:50:14.060Z,18.19
2018-05-06T06:51:14.081Z,18.15
2018-05-06T06:52:14.108Z,17.87
2018-05-06T06:53:14.129Z,17.92
2018-05-06T06:54:14.156Z,17.81
2018-05-06T06:55:14.178Z,17.70
2018-05-06T06:56:14.192Z,17.69
2018-05-06T06:57:14.244Z,17.78
2018-05-06T06:58:14.246Z,17.73
2018-05-06T06:59:14.307Z,17.84
2018-05-06T07:00:14.290Z,17.76
2018-05-06T07:01:14.311Z,17.79
2018-05-06T07:02:14.393Z,17.74
2018-05-06T07:03:14.352Z,17.84
2018-05-06T07:04:14.375Z,17.97
2018-05-06T07:05:14.403Z,17.95
2018-05-06T07:06:14.427Z,18.00
2018-05-06T07:07:14.450Z,18.21
2018-05-06T07:08:14.472Z,18.21
2018-05-06T07:09:14.500Z,18.12
2018-05-06T07:10:14.562Z,18.22
2018-05-06T07:11:14.584Z,18.31
2018-05-06T07:12:14.566Z,18.36
2018-05-06T07:13:14.587Z,18.33
2018-05-06T07:14:14.613Z,18.31
2018-05-06T07:15:14.627Z,18.36
2018-05-06T07:16:14.660Z,18.36
2018-05-06T07:17:14.680Z,18.46
2018-05-06T07:18:14.710Z,18.34
2018-05-06T07:19:14.739Z,18.37
2018-05-06T07:20:14.746Z,18.50
2018-05-06T07:21:14.769Z,18.42
2018-05-06T07:22:14.797Z,18.55
2018-05-06T07:23:14.827Z,18.39
2018-05-06T07:24:14.843Z,18.52
2018-05-06T07:25:14.859Z,18.57
2018-05-06T07:26:14.885Z,18.49
2018-05-06T07:27:14.921Z,18.58
2018-05-06T07:28:14.938Z,18.58
2018-05-06T07:29:14.975Z,18.64
2018-05-06T07:30:14.979Z,18.61
2018-05-06T07:31:14.999Z,18.61
2018-05-06T07:32:15.028Z,18.62
2018-05-06T07:33:15.048Z,18.68
2018-05-06T07:34:15.077Z,18.76
2018-05-06T07:35:15.097Z,18.65
2018-05-06T07:36:15.110Z,18.65
2018-05-06T07:37:15.140Z,18.68
2018-05-06T07:38:15.163Z,18.65
2018-05-06T07:39:15.188Z,18.76
2018-05-06T07:40:15.211Z,18.67
2018-05-06T07:41:15.234Z,18.76
2018-05-06T07:42:15.256Z,18.70
2018-05-06T07:43:15.289Z,18.83
2018-05-06T07:44:15.297Z,18.80
2018-05-06T07:45:15.331Z,18.98
2018-05-06T07:46:15.351Z,19.33
2018-05-06T07:47:15.380Z,19.38
2018-05-06T07:48:15.391Z,19.53
2018-05-06T07:49:15.424Z,19.61
2018-05-06T07:50:15.446Z,19.66
2018-05-06T07:51:15.468Z,19.53
2018-05-06T07:52:15.487Z,19.55
2018-05-06T07:53:15.516Z,19.68
2018-05-06T07:54:15.543Z,19.54
2018-05-06T07:55:15.560Z,19.28
2018-05-06T07:56:15.585Z,19.35
2018-05-06T07:57:15.614Z,19.28
2018-05-06T07:58:15.632Z,19.23
2018-05-06T07:59:15.651Z,19.11
2018-05-06T08:00:15.686Z,19.42
2018-05-06T08:01:15.710Z,19.25
2018-05-06T08:02:15.736Z,19.29
2018-05-06T08:03:15.749Z,19.25
2018-05-06T08:04:15.774Z,19.39
2018-05-06T08:05:15.793Z,19.39
2018-05-06T08:06:15.894Z,19.33
2018-05-06T08:07:15.841Z,19.36
2018-05-06T08:08:15.869Z,19.39
2018-05-06T08:09:15.894Z,19.39
2018-05-06T08:10:15.925Z,19.43
2018-05-06T08:11:15.942Z,19.66
2018-05-06T08:12:15.963Z,19.70
2018-05-06T08:13:15.993Z,19.69
2018-05-06T08:14:16.011Z,19.79
2018-05-06T08:15:16.037Z,19.73
2018-05-06T08:16:16.150Z,19.76
2018-05-06T08:17:16.086Z,19.94
2018-05-06T08:18:16.113Z,19.94
2018-05-06T08:19:16.132Z,20.03
2018-05-06T08:20:16.152Z,19.91
2018-05-06T08:21:16.181Z,19.86
2018-05-06T08:22:16.204Z,19.73
2018-05-06T08:23:16.231Z,19.73
2018-05-06T08:24:16.256Z,19.66
2018-05-06T08:25:16.283Z,19.68
2018-05-06T08:26:16.302Z,19.63
2018-05-06T08:27:16.328Z,19.63
2018-05-06T08:28:16.352Z,19.73
2018-05-06T08:29:16.370Z,19.88
2018-05-06T08:30:16.398Z,19.88
2018-05-06T08:31:16.521Z,19.84
2018-05-06T08:32:16.448Z,19.73
2018-05-06T08:33:16.473Z,19.75
2018-05-06T08:34:16.504Z,19.63
2018-05-06T08:35:16.546Z,19.68
2018-05-06T08:36:16.550Z,19.78
2018-05-06T08:37:16.566Z,19.73
2018-05-06T08:38:16.605Z,19.78
2018-05-06T08:39:16.620Z,19.88
2018-05-06T08:40:16.640Z,19.84
2018-05-06T08:41:16.661Z,19.90
2018-05-06T08:42:16.693Z,20.02
2018-05-06T08:43:16.712Z,20.06
2018-05-06T08:44:16.736Z,20.05
2018-05-06T08:45:16.767Z,19.98
2018-05-06T08:46:16.783Z,19.86
2018-05-06T08:47:16.813Z,20.00
2018-05-06T08:48:16.845Z,19.98
2018-05-06T08:49:16.867Z,20.05
2018-05-06T08:50:16.882Z,20.20
2018-05-06T08:51:16.916Z,20.28
2018-05-06T08:52:16.925Z,20.25
2018-05-06T08:53:16.956Z,20.42
2018-05-06T08:54:16.986Z,20.24
2018-05-06T08:55:17.062Z,20.06
2018-05-06T08:56:17.027Z,20.10
2018-05-06T08:57:17.089Z,20.23
2018-05-06T08:58:17.078Z,20.12
2018-05-06T08:59:17.106Z,20.33
2018-05-06T09:00:17.128Z,20.25
2018-05-06T09:01:17.162Z,20.34
2018-05-06T09:02:17.177Z,20.43
2018-05-06T09:03:17.199Z,20.41
2018-05-06T09:04:17.223Z,20.39
2018-05-06T09:05:17.264Z,20.50
2018-05-06T09:06:17.277Z,20.61
2018-05-06T09:07:17.296Z,20.64
2018-05-06T09:08:17.321Z,20.58
2018-05-06T09:09:17.350Z,20.61
2018-05-06T09:10:17.375Z,20.72
2018-05-06T09:11:17.396Z,20.76
2018-05-06T09:12:17.420Z,20.81
2018-05-06T09:13:17.447Z,20.72
2018-05-06T09:14:17.472Z,20.61
2018-05-06T09:15:17.494Z,20.61
2018-05-06T09:16:17.526Z,20.59
2018-05-06T09:17:17.549Z,20.61
2018-05-06T09:18:17.571Z,20.62
2018-05-06T09:19:17.597Z,20.71
2018-05-06T09:20:17.622Z,20.76
2018-05-06T09:21:17.651Z,20.87
2018-05-06T09:22:17.674Z,20.90
2018-05-06T09:23:17.697Z,20.93
2018-05-06T09:24:17.712Z,20.95
2018-05-06T09:25:17.750Z,20.76
2018-05-06T09:26:17.771Z,20.77
2018-05-06T09:27:17.796Z,20.68
2018-05-06T09:28:17.819Z,20.71
2018-05-06T09:29:17.845Z,20.80
2018-05-06T09:30:17.867Z,20.89
2018-05-06T09:31:17.912Z,20.93
2018-05-06T09:32:17.990Z,20.96
2018-05-06T09:33:17.944Z,21.11
2018-05-06T09:34:17.974Z,21.09
2018-05-06T09:35:17.996Z,21.13
2018-05-06T09:36:18.017Z,21.08
2018-05-06T09:37:18.039Z,21.05
2018-05-06T09:38:18.065Z,21.08
2018-05-06T09:39:18.092Z,21.16
2018-05-06T09:40:18.115Z,21.20
2018-05-06T09:41:18.138Z,21.26
2018-05-06T09:42:18.174Z,21.32
2018-05-06T09:43:18.191Z,21.26
2018-05-06T09:44:18.217Z,21.23
2018-05-06T09:45:18.246Z,21.21
2018-05-06T09:46:18.274Z,21.14
2018-05-06T09:47:18.297Z,21.24
2018-05-06T09:48:18.322Z,21.29
2018-05-06T09:49:18.372Z,21.27
2018-05-06T09:50:18.365Z,21.16
2018-05-06T09:51:18.397Z,21.06
2018-05-06T09:52:18.416Z,21.09
2018-05-06T09:53:18.446Z,21.04
2018-05-06T09:54:18.475Z,21.05
2018-05-06T09:55:18.511Z,21.04
2018-05-06T09:56:18.525Z,21.13
2018-05-06T09:57:18.545Z,21.13
2018-05-06T09:58:18.572Z,21.23
2018-05-06T09:59:18.609Z,21.24
2018-05-06T10:00:18.622Z,21.26
2018-05-06T10:01:18.655Z,21.38
2018-05-06T10:02:18.682Z,21.46
2018-05-06T10:03:18.712Z,21.41
2018-05-06T10:04:18.720Z,21.41
2018-05-06T10:05:18.750Z,21.50
2018-05-06T10:06:18.780Z,21.51
2018-05-06T10:07:18.803Z,21.42
2018-05-06T10:08:18.923Z,21.36
2018-05-06T10:09:18.855Z,21.53
2018-05-06T10:10:18.900Z,21.51
2018-05-06T10:11:18.902Z,21.42
2018-05-06T10:12:18.931Z,21.53
2018-05-06T10:13:18.954Z,21.48
2018-05-06T10:14:18.975Z,21.41
2018-05-06T10:15:18.999Z,21.48
2018-05-06T10:16:19.028Z,21.44
2018-05-06T10:17:19.057Z,21.51
2018-05-06T10:18:19.083Z,21.53
2018-05-06T10:19:19.116Z,21.60
2018-05-06T10:20:19.133Z,21.69
2018-05-06T10:21:19.163Z,21.64
2018-05-06T10:22:19.197Z,21.64
2018-05-06T10:23:19.256Z,21.59
2018-05-06T10:24:19.249Z,21.63
2018-05-06T10:25:19.267Z,21.75
2018-05-06T10:26:19.286Z,21.74
2018-05-06T10:27:19.315Z,21.81
2018-05-06T10:28:19.339Z,21.76
2018-05-06T10:29:19.364Z,21.79
2018-05-06T10:30:19.383Z,21.74
2018-05-06T10:31:19.409Z,21.76
2018-05-06T10:32:19.446Z,21.71
2018-05-06T10:33:19.463Z,21.74
2018-05-06T10:34:19.494Z,21.82
2018-05-06T10:35:19.518Z,21.83
2018-05-06T10:36:19.535Z,21.97
2018-05-06T10:37:19.577Z,21.85
2018-05-06T10:38:19.640Z,21.91
2018-05-06T10:39:19.617Z,21.98
2018-05-06T10:40:19.653Z,22.06
2018-05-06T10:41:19.664Z,22.06
2018-05-06T10:42:19.708Z,22.02
2018-05-06T10:43:19.724Z,22.01
2018-05-06T10:44:19.814Z,21.99
2018-05-06T10:45:19.772Z,21.99
2018-05-06T10:46:19.800Z,21.99
2018-05-06T10:47:19.826Z,21.92
2018-05-06T10:48:19.862Z,21.92
2018-05-06T10:49:20.013Z,22.04
2018-05-06T10:50:19.917Z,22.04
2018-05-06T10:51:19.929Z,21.92
2018-05-06T10:52:19.958Z,21.98
2018-05-06T10:53:19.978Z,22.01
2018-05-06T10:54:20.008Z,22.04
2018-05-06T10:55:20.031Z,22.13
2018-05-06T10:56:20.065Z,22.14
2018-05-06T10:57:20.080Z,22.09
2018-05-06T10:58:20.119Z,22.14
2018-05-06T10:59:20.137Z,22.14
2018-05-06T11:00:20.162Z,22.13
2018-05-06T11:01:20.192Z,22.25
2018-05-06T11:02:20.241Z,22.28
2018-05-06T11:03:20.239Z,22.27
2018-05-06T11:04:20.270Z,22.27
2018-05-06T11:05:20.294Z,22.10
2018-05-06T11:06:20.316Z,22.29
2018-05-06T11:07:20.345Z,22.35
2018-05-06T11:08:20.369Z,22.22
2018-05-06T11:09:20.393Z,22.28
2018-05-06T11:10:20.439Z,22.27
2018-05-06T11:11:20.448Z,22.25
2018-05-06T11:12:20.493Z,22.22
2018-05-06T11:13:20.522Z,22.47
2018-05-06T11:14:20.539Z,22.28
2018-05-06T11:15:20.552Z,22.28
2018-05-06T11:16:20.581Z,22.25
2018-05-06T11:17:20.605Z,22.34
2018-05-06T11:18:20.630Z,22.38
2018-05-06T11:19:20.663Z,22.41
2018-05-06T11:20:20.690Z,22.41
2018-05-06T11:21:20.707Z,22.32
2018-05-06T11:22:20.737Z,22.44
2018-05-06T11:23:20.771Z,22.39
2018-05-06T11:24:20.785Z,22.49
2018-05-06T11:25:20.819Z,22.41
2018-05-06T11:26:20.902Z,22.34
2018-05-06T11:27:20.871Z,22.39
2018-05-06T11:28:20.891Z,22.44
2018-05-06T11:29:20.915Z,22.44
2018-05-06T11:30:20.946Z,22.53
2018-05-06T11:31:20.973Z,22.64
2018-05-06T11:32:21.002Z,22.60
2018-05-06T11:33:21.079Z,22.67
2018-05-06T11:34:21.051Z,22.67
2018-05-06T11:35:21.085Z,22.65
2018-05-06T11:36:21.100Z,22.71
2018-05-06T11:37:21.130Z,22.68
2018-05-06T11:38:21.159Z,22.74
2018-05-06T11:39:21.180Z,22.82
2018-05-06T11:40:21.216Z,22.65
2018-05-06T11:41:21.246Z,22.67
2018-05-06T11:42:21.285Z,22.74
2018-05-06T11:43:21.290Z,22.75
2018-05-06T11:44:21.314Z,22.75
2018-05-06T11:45:21.352Z,22.90
2018-05-06T11:46:21.363Z,23.01
2018-05-06T11:47:21.391Z,22.84
2018-05-06T11:48:21.418Z,22.86
2018-05-06T11:49:21.444Z,22.86
2018-05-06T11:50:21.473Z,22.78
2018-05-06T11:51:21.499Z,22.75
2018-05-06T11:52:21.615Z,22.82
2018-05-06T11:53:21.552Z,22.96
2018-05-06T11:54:21.573Z,22.87
2018-05-06T11:55:21.613Z,22.80
2018-05-06T11:56:21.670Z,22.94
2018-05-06T11:57:21.654Z,22.90
2018-05-06T11:58:21.683Z,22.86
2018-05-06T11:59:21.718Z,23.08
2018-05-06T12:00:21.735Z,23.12
2018-05-06T12:01:21.757Z,22.99
2018-05-06T12:02:21.839Z,23.01
2018-05-06T12:03:21.830Z,23.01
2018-05-06T12:04:21.841Z,22.94
2018-05-06T12:05:21.871Z,23.01
2018-05-06T12:06:21.896Z,23.08
2018-05-06T12:07:21.917Z,23.01
2018-05-06T12:08:21.951Z,23.02
2018-05-06T12:09:21.984Z,23.02
2018-05-06T12:10:22.004Z,23.05
2018-05-06T12:11:22.026Z,23.07
2018-05-06T12:12:22.055Z,23.11
2018-05-06T12:13:22.089Z,23.07
2018-05-06T12:14:22.115Z,22.99
2018-05-06T12:15:22.136Z,23.14
2018-05-06T12:16:22.158Z,23.20
2018-05-06T12:17:22.186Z,23.17
2018-05-06T12:18:22.306Z,23.14
2018-05-06T12:19:22.262Z,23.19
2018-05-06T12:20:22.264Z,23.19
2018-05-06T12:21:22.295Z,23.26
2018-05-06T12:22:22.329Z,23.39
2018-05-06T12:23:22.355Z,23.29
2018-05-06T12:24:22.377Z,23.31
2018-05-06T12:25:22.402Z,23.22
2018-05-06T12:26:22.435Z,23.11
2018-05-06T12:27:22.466Z,23.22
2018-05-06T12:28:22.582Z,23.17
2018-05-06T12:29:22.512Z,23.20
2018-05-06T12:30:22.538Z,23.23
2018-05-06T12:31:22.585Z,23.31
2018-05-06T12:56:35.599Z,23.97
2018-05-06T12:57:35.571Z,24.07
2018-05-06T12:59:30.060Z,24.35
2018-05-06T13:00:30.061Z,24.52
2018-05-06T13:02:23.556Z,24.63
2018-05-06T13:03:23.537Z,24.67
2018-05-06T13:05:18.027Z,24.77
2018-05-06T13:06:18.039Z,24.64
2018-05-06T13:08:11.545Z,24.75
2018-05-06T13:09:11.557Z,24.90
2018-05-06T13:11:05.042Z,24.97
2018-05-06T13:12:05.050Z,25.05
2018-05-06T13:13:59.561Z,25.16
2018-05-06T13:14:59.540Z,25.10
2018-05-06T13:16:53.030Z,25.25
2018-05-06T13:17:53.029Z,25.28
2018-05-06T13:19:46.544Z,25.37
2018-05-06T13:20:46.543Z,25.27
2018-05-06T13:22:40.033Z,25.37
2018-05-06T13:23:40.027Z,25.32
2018-05-06T13:25:34.490Z,25.53